Time;durP1;ratioP1;P1;durP2;ratioP2;P2;SDS_P1;SDS_P2;PMS_P1;PMS_P2;Temp;Humidity;BMP_temperature;BMP_pressure;BME280_temperature;BME280_humidity;BME280_pressure;Samples;Min_cycle;Max_cycle;Signal;HPM_P1;HPM_P2
2022/05/31 00:01:37;;;;;;;3.67;2.33;;;8.90;99.90;;;;;;5032643;28;21698;-78
2022/05/31 00:04:04;;;;;;;2.60;1.93;;;8.80;99.90;;;;;;5054384;28;20124;-77
2022/05/31 00:06:30;;;;;;;2.20;2.00;;;8.80;99.90;;;;;;5054192;28;20049;-78
2022/05/31 00:08:56;;;;;;;2.47;2.00;;;8.90;99.90;;;;;;5058170;28;20071;-77
2022/05/31 00:11:22;;;;;;;4.97;2.50;;;8.90;99.90;;;;;;5049382;28;20048;-78
2022/05/31 00:13:48;;;;;;;4.90;2.10;;;8.90;99.90;;;;;;5052266;28;20051;-78
2022/05/31 00:16:13;;;;;;;3.97;2.30;;;8.90;99.90;;;;;;5051222;28;20047;-77
2022/05/31 00:18:39;;;;;;;4.00;2.63;;;8.90;99.90;;;;;;5065106;28;20069;-79
2022/05/31 00:21:07;;;;;;;4.37;2.07;;;8.90;99.90;;;;;;5071194;28;20036;-77
2022/05/31 00:23:33;;;;;;;2.40;2.20;;;8.90;99.90;;;;;;5051090;28;20053;-79
2022/05/31 00:26:00;;;;;;;3.83;2.60;;;8.90;99.90;;;;;;5025320;28;20049;-79
2022/05/31 00:28:25;;;;;;;5.27;2.33;;;9.00;99.90;;;;;;5033712;28;21369;-80
2022/05/31 00:30:53;;;;;;;4.10;2.30;;;9.00;99.90;;;;;;5037102;28;20067;-80
2022/05/31 00:33:19;;;;;;;3.43;2.70;;;9.00;99.90;;;;;;5041595;28;20045;-78
2022/05/31 00:35:46;;;;;;;3.83;2.23;;;9.00;99.90;;;;;;5054180;28;20067;-77
2022/05/31 00:38:14;;;;;;;4.17;2.40;;;9.00;99.90;;;;;;5044584;28;20470;-80
2022/05/31 00:40:40;;;;;;;2.83;2.37;;;9.00;99.90;;;;;;5060254;28;20052;-79
2022/05/31 00:43:09;;;;;;;5.80;2.27;;;9.00;99.90;;;;;;5060098;28;20509;-79
2022/05/31 00:45:37;;;;;;;2.40;1.70;;;9.00;99.90;;;;;;5049538;28;20103;-78
2022/05/31 00:48:06;;;;;;;2.83;2.10;;;9.00;99.90;;;;;;5037924;28;20032;-78
2022/05/31 00:50:37;;;;;;;4.67;2.03;;;9.00;99.90;;;;;;5044320;28;20520;-79
2022/05/31 00:53:09;;;;;;;3.27;2.20;;;9.00;99.90;;;;;;5045689;28;20071;-78
2022/05/31 00:55:42;;;;;;;2.90;2.40;;;9.00;99.90;;;;;;5048158;28;20053;-78
2022/05/31 00:58:12;;;;;;;3.80;2.42;;;9.00;99.90;;;;;;5051334;28;20056;-81
2022/05/31 01:00:40;;;;;;;6.10;2.67;;;9.10;99.90;;;;;;5059675;28;20086;-78
2022/05/31 01:03:08;;;;;;;3.43;2.20;;;9.10;99.90;;;;;;5062411;28;20067;-78
2022/05/31 01:05:34;;;;;;;3.17;2.10;;;9.10;99.90;;;;;;5050514;28;20084;-80
2022/05/31 01:08:00;;;;;;;3.23;2.13;;;9.10;99.90;;;;;;5064816;28;20041;-77
2022/05/31 01:10:35;;;;;;;;;;;9.10;99.90;;;;;;5038519;28;20041;-77
2022/05/31 01:13:24;;;;;;;3.60;1.80;;;9.10;99.90;;;;;;5065400;28;19927;-79
2022/05/31 01:16:11;;;;;;;2.20;1.87;;;9.10;99.90;;;;;;5058999;28;20052;-77
2022/05/31 01:18:56;;;;;;;3.33;2.20;;;9.10;99.90;;;;;;5058502;28;20117;-78
2022/05/31 01:21:54;;;;;;;3.23;2.33;;;9.10;99.90;;;;;;5052730;28;20032;-78
2022/05/31 01:24:30;;;;;;;3.37;2.20;;;9.10;99.90;;;;;;5047135;28;20584;-80
2022/05/31 01:27:08;;;;;;;2.27;2.07;;;9.10;99.90;;;;;;5049593;28;20067;-79
2022/05/31 01:29:38;;;;;;;4.23;2.03;;;9.10;99.90;;;;;;5062662;28;20040;-79
2022/05/31 01:32:07;;;;;;;3.23;2.30;;;9.10;99.90;;;;;;5041801;28;20124;-77
2022/05/31 01:34:37;;;;;;;3.10;2.30;;;9.10;99.90;;;;;;5046998;28;20051;-77
2022/05/31 01:37:05;;;;;;;2.53;2.30;;;9.10;99.90;;;;;;5045618;28;20048;-80
2022/05/31 01:39:35;;;;;;;2.60;2.13;;;9.10;99.90;;;;;;5038797;28;20067;-78
2022/05/31 01:42:06;;;;;;;3.57;2.70;;;9.10;99.90;;;;;;5051264;28;20047;-77
2022/05/31 01:44:37;;;;;;;4.47;2.37;;;9.10;99.90;;;;;;5053644;28;20051;-77
2022/05/31 01:47:04;;;;;;;3.20;2.10;;;9.10;99.90;;;;;;5064670;28;20053;-78
2022/05/31 01:49:32;;;;;;;2.77;2.10;;;9.10;99.90;;;;;;5058521;28;20113;-79
2022/05/31 01:51:58;;;;;;;4.00;2.47;;;9.10;99.90;;;;;;5053402;28;20045;-77
2022/05/31 01:54:27;;;;;;;3.33;2.50;;;9.10;99.90;;;;;;5046515;28;20097;-79
2022/05/31 01:57:00;;;;;;;4.03;2.20;;;9.10;99.90;;;;;;5060141;28;20788;-79
2022/05/31 01:59:31;;;;;;;4.40;2.83;;;9.10;99.90;;;;;;5052729;28;20037;-78
2022/05/31 02:01:59;;;;;;;4.77;2.70;;;9.10;99.90;;;;;;5028436;28;20049;-78
2022/05/31 02:04:26;;;;;;;4.53;2.70;;;9.10;99.90;;;;;;5048923;28;20075;-77
2022/05/31 02:07:10;;;;;;;3.27;2.47;;;9.10;99.90;;;;;;5044142;28;20053;-77
2022/05/31 02:09:39;;;;;;;5.97;2.63;;;9.10;99.90;;;;;;5048741;28;20483;-78
2022/05/31 02:12:06;;;;;;;3.00;2.70;;;9.10;99.90;;;;;;5047065;28;20053;-81
2022/05/31 02:14:33;;;;;;;5.67;2.70;;;9.10;99.90;;;;;;5039522;28;20048;-77
2022/05/31 02:16:59;;;;;;;5.37;3.50;;;9.10;99.90;;;;;;5054211;28;20512;-78
2022/05/31 02:19:57;;;;;;;5.40;2.93;;;9.10;99.90;;;;;;5059004;28;20052;-77
2022/05/31 02:22:30;;;;;;;8.43;3.60;;;9.10;99.90;;;;;;5029572;28;20071;-77
2022/05/31 02:24:58;;;;;;;3.40;2.90;;;9.10;99.90;;;;;;5060224;28;20044;-78
2022/05/31 02:27:24;;;;;;;3.87;3.20;;;9.10;99.90;;;;;;5044081;28;20043;-78
2022/05/31 02:29:49;;;;;;;4.83;3.27;;;9.20;99.90;;;;;;5051995;28;20037;-77
2022/05/31 02:32:16;;;;;;;3.00;2.67;;;9.10;99.90;;;;;;5041975;28;20067;-79
2022/05/31 02:34:44;;;;;;;3.33;2.83;;;9.20;99.90;;;;;;5027576;28;20045;-81
2022/05/31 02:37:11;;;;;;;4.87;3.40;;;9.20;99.90;;;;;;5046584;28;20047;-77
2022/05/31 02:39:37;;;;;;;4.73;3.40;;;9.20;99.90;;;;;;5044724;28;20109;-77
2022/05/31 02:42:06;;;;;;;4.43;3.20;;;9.20;99.90;;;;;;5049375;28;20037;-79
2022/05/31 02:44:32;;;;;;;4.77;3.00;;;9.20;99.90;;;;;;5035363;28;20044;-78
2022/05/31 02:46:59;;;;;;;3.97;3.07;;;9.20;99.90;;;;;;5052602;28;20440;-78
2022/05/31 02:49:25;;;;;;;4.17;2.70;;;9.20;99.90;;;;;;5028740;28;20088;-77
2022/05/31 02:51:52;;;;;;;3.50;2.80;;;9.20;99.90;;;;;;5027984;28;20048;-79
2022/05/31 02:54:20;;;;;;;3.20;2.80;;;9.20;99.90;;;;;;5042627;28;20051;-81
2022/05/31 02:57:08;;;;;;;3.07;2.53;;;9.20;99.90;;;;;;5033872;28;20049;-77
2022/05/31 02:59:52;;;;;;;3.97;2.80;;;9.20;99.90;;;;;;5051387;28;20058;-78
2022/05/31 03:02:37;;;;;;;3.85;2.63;;;9.20;99.90;;;;;;5048148;28;20080;-77
2022/05/31 03:05:04;;;;;;;4.93;3.00;;;9.20;99.90;;;;;;5060708;28;20045;-78
2022/05/31 03:07:59;;;;;;;3.97;2.97;;;9.30;99.90;;;;;;5066313;28;20406;-78
2022/05/31 03:10:32;;;;;;;5.03;3.37;;;9.30;99.90;;;;;;5057551;28;20053;-80
2022/05/31 03:13:00;;;;;;;4.83;3.23;;;9.20;99.90;;;;;;5050641;28;20055;-79
2022/05/31 03:15:26;;;;;;;5.70;3.20;;;9.30;99.90;;;;;;5034375;28;20041;-78
2022/05/31 03:17:57;;;;;;;6.20;2.93;;;9.30;99.90;;;;;;5066200;28;20051;-79
2022/05/31 03:20:27;;;;;;;4.50;2.83;;;9.30;99.90;;;;;;5042587;28;20131;-78
2022/05/31 03:22:56;;;;;;;4.00;2.50;;;9.30;99.90;;;;;;5048273;28;20551;-78
2022/05/31 03:25:24;;;;;;;4.83;3.23;;;9.30;99.90;;;;;;5035879;28;20041;-78
2022/05/31 03:27:52;;;;;;;3.50;2.97;;;9.30;99.90;;;;;;5047917;28;20045;-78
2022/05/31 03:30:19;;;;;;;4.37;3.03;;;9.30;99.90;;;;;;5028761;28;20048;-78
2022/05/31 03:32:46;;;;;;;4.33;3.13;;;9.30;99.90;;;;;;5039492;28;20075;-78
2022/05/31 03:35:12;;;;;;;4.40;3.23;;;9.30;99.90;;;;;;5048810;28;20060;-78
2022/05/31 03:37:40;;;;;;;5.67;3.73;;;9.30;99.90;;;;;;5040075;28;20123;-78
2022/05/31 03:43:05;;;;;;;4.80;3.60;;;9.30;99.90;;;;;;5050862;28;20037;-79
2022/05/31 03:45:33;;;;;;;5.13;3.83;;;9.30;99.90;;;;;;5035079;28;20766;-78
2022/05/31 03:48:17;;;;;;;5.37;3.83;;;9.40;99.90;;;;;;5052346;28;20064;-79
2022/05/31 03:50:58;;;;;;;6.73;4.27;;;9.40;99.90;;;;;;5042895;28;20036;-79
2022/05/31 03:53:25;;;;;;;4.30;3.90;;;9.40;99.90;;;;;;5027614;28;20052;-78
2022/05/31 03:55:51;;;;;;;5.03;4.07;;;9.40;99.90;;;;;;5027171;28;20037;-78
2022/05/31 03:58:17;;;;;;;4.97;3.60;;;9.40;99.90;;;;;;5036084;28;20559;-78
2022/05/31 04:00:54;;;;;;;6.10;4.03;;;9.50;99.90;;;;;;5043023;28;20071;-79
2022/05/31 04:03:23;;;;;;;5.13;3.60;;;9.40;99.90;;;;;;5054651;28;20045;-78
2022/05/31 04:05:51;;;;;;;6.53;3.83;;;9.40;99.90;;;;;;5053722;28;20060;-78
2022/05/31 04:08:19;;;;;;;5.03;3.77;;;9.50;99.90;;;;;;5035236;28;20136;-78
2022/05/31 04:10:45;;;;;;;5.10;4.03;;;9.50;99.90;;;;;;5064637;28;20045;-78
2022/05/31 04:13:11;;;;;;;7.53;4.07;;;9.50;99.90;;;;;;5048098;28;21081;-77
2022/05/31 04:16:16;;;;;;;5.20;4.37;;;9.50;99.90;;;;;;5054574;28;20469;-80
2022/05/31 04:18:50;;;;;;;5.67;4.00;;;9.50;99.90;;;;;;5051877;28;20139;-79
2022/05/31 04:21:17;;;;;;;6.47;4.60;;;9.60;99.90;;;;;;5064301;28;20103;-80
2022/05/31 04:23:58;;;;;;;5.80;4.30;;;9.60;99.90;;;;;;5049654;28;20122;-78
2022/05/31 04:26:40;;;;;;;6.47;4.37;;;9.60;99.90;;;;;;5066989;28;20040;-78
2022/05/31 04:29:25;;;;;;;5.20;4.17;;;9.70;99.90;;;;;;5049516;28;20048;-79
2022/05/31 04:32:11;;;;;;;8.33;4.97;;;9.70;99.90;;;;;;5043444;28;20046;-78
2022/05/31 04:34:52;;;;;;;8.40;4.83;;;9.70;99.90;;;;;;5051074;28;20119;-78
2022/05/31 04:37:19;;;;;;;6.43;4.30;;;9.80;99.90;;;;;;5049872;28;20070;-81
2022/05/31 04:40:04;;;;;;;5.87;4.63;;;9.80;99.90;;;;;;5062032;28;20052;-79
2022/05/31 04:42:42;;;;;;;5.90;4.63;;;9.80;99.90;;;;;;5062015;28;20052;-79
2022/05/31 04:45:14;;;;;;;6.90;4.43;;;9.90;99.90;;;;;;5049359;28;20037;-79
2022/05/31 04:47:43;;;;;;;5.90;4.70;;;9.90;99.90;;;;;;5046110;28;20132;-79
2022/05/31 04:50:09;;;;;;;5.57;4.97;;;9.90;99.90;;;;;;5042304;28;20128;-78
2022/05/31 04:52:37;;;;;;;6.27;4.83;;;10.00;99.90;;;;;;5051099;28;20069;-78
2022/05/31 04:55:04;;;;;;;7.30;5.27;;;10.00;99.90;;;;;;5043214;28;20044;-79
2022/05/31 04:57:38;;;;;;;5.97;4.50;;;10.00;99.90;;;;;;5050821;28;20053;-78
2022/05/31 05:00:06;;;;;;;9.70;5.23;;;10.10;99.90;;;;;;5038606;28;20061;-80
2022/05/31 05:02:35;;;;;;;5.33;4.47;;;10.10;99.90;;;;;;5068804;28;20064;-78
2022/05/31 05:05:08;;;;;;;6.60;5.50;;;10.10;99.90;;;;;;5040862;28;20033;-78
2022/05/31 05:07:46;;;;;;;7.13;5.27;;;10.10;99.90;;;;;;5044190;28;20566;-80
2022/05/31 05:10:12;;;;;;;7.20;4.97;;;10.20;99.90;;;;;;5034545;28;20052;-81
2022/05/31 05:12:48;;;;;;;7.03;4.50;;;10.30;99.90;;;;;;5059315;28;20505;-79
2022/05/31 05:15:38;;;;;;;6.80;4.93;;;10.30;99.90;;;;;;5056037;28;20504;-78
2022/05/31 05:18:03;;;;;;;7.13;4.70;;;10.30;99.90;;;;;;5027180;28;20124;-78
2022/05/31 05:20:32;;;;;;;5.30;4.67;;;10.40;99.90;;;;;;5049785;28;20063;-78
2022/05/31 05:22:58;;;;;;;6.70;4.80;;;10.50;99.90;;;;;;5030042;28;20065;-78
2022/05/31 05:25:24;;;;;;;7.37;5.20;;;10.50;99.90;;;;;;5026599;28;20056;-80
2022/05/31 05:27:57;;;;;;;5.60;4.97;;;10.60;99.90;;;;;;5044434;28;20040;-78
2022/05/31 05:30:39;;;;;;;6.23;5.10;;;10.60;99.90;;;;;;5029684;28;20037;-79
2022/05/31 05:33:16;;;;;;;6.27;5.13;;;10.70;99.90;;;;;;5069970;28;20049;-79
2022/05/31 05:36:18;;;;;;;6.67;5.20;;;10.80;99.90;;;;;;5065069;28;20048;-79
2022/05/31 05:38:46;;;;;;;5.37;4.87;;;10.80;99.90;;;;;;5053408;28;20048;-78
2022/05/31 05:41:32;;;;;;;7.57;5.23;;;10.80;99.90;;;;;;5051364;28;20041;-78
2022/05/31 05:44:16;;;;;;;8.47;5.10;;;10.90;99.90;;;;;;5068119;28;20122;-79
2022/05/31 05:46:43;;;;;;;6.40;5.33;;;10.90;99.90;;;;;;5065575;28;20259;-78
2022/05/31 05:49:08;;;;;;;7.60;5.80;;;11.00;99.90;;;;;;5045705;28;20044;-78
2022/05/31 05:51:36;;;;;;;7.73;5.10;;;11.10;99.90;;;;;;5053842;28;20100;-79
2022/05/31 05:54:36;;;;;;;11.93;5.27;;;11.10;99.90;;;;;;5059274;28;20083;-79
2022/05/31 05:57:20;;;;;;;5.55;5.00;;;11.20;99.90;;;;;;5038889;28;20137;-78
2022/05/31 06:00:06;;;;;;;7.05;5.18;;;11.30;99.90;;;;;;5048255;28;20051;-78
2022/05/31 06:03:07;;;;;;;7.57;5.20;;;11.40;99.90;;;;;;5043441;28;20047;-80
2022/05/31 06:05:54;;;;;;;5.50;4.73;;;11.40;99.90;;;;;;5034272;28;20043;-79
2022/05/31 06:08:27;;;;;;;7.73;5.17;;;11.50;99.90;;;;;;5023777;28;20448;-78
2022/05/31 06:11:02;;;;;;;7.53;4.60;;;11.50;99.90;;;;;;5057440;28;20049;-80
2022/05/31 06:13:33;;;;;;;8.90;4.90;;;11.60;99.90;;;;;;5046454;28;20051;-79
2022/05/31 06:15:59;;;;;;;6.07;5.10;;;11.60;99.90;;;;;;5066375;28;20040;-82
2022/05/31 06:18:29;;;;;;;8.80;5.53;;;11.70;99.90;;;;;;5042019;28;20039;-79
2022/05/31 06:21:00;;;;;;;6.37;4.77;;;11.80;99.90;;;;;;5039650;28;20036;-77
2022/05/31 06:23:27;;;;;;;7.07;5.27;;;11.90;99.90;;;;;;5040784;28;20063;-80
2022/05/31 06:25:57;;;;;;;6.23;4.80;;;11.80;99.90;;;;;;5029025;28;20060;-79
2022/05/31 06:28:41;;;;;;;5.33;4.77;;;11.80;99.90;;;;;;5041033;28;20059;-77
2022/05/31 06:31:07;;;;;;;6.03;4.63;;;11.90;99.90;;;;;;5022852;28;20147;-78
2022/05/31 06:33:32;;;;;;;6.53;4.50;;;12.00;99.90;;;;;;5047531;28;20697;-78
2022/05/31 06:36:01;;;;;;;9.60;4.80;;;12.10;99.90;;;;;;5040353;28;20041;-78
2022/05/31 06:38:28;;;;;;;6.60;4.80;;;12.20;99.90;;;;;;5047790;28;20036;-78
2022/05/31 06:40:55;;;;;;;6.43;4.80;;;12.30;99.90;;;;;;5055202;28;20045;-79
2022/05/31 06:43:56;;;;;;;5.97;4.30;;;12.40;99.90;;;;;;5038846;28;20075;-81
2022/05/31 06:46:40;;;;;;;6.57;4.80;;;12.50;99.90;;;;;;5056007;28;20098;-79
2022/05/31 06:49:28;;;;;;;7.60;4.40;;;12.50;99.90;;;;;;5056672;28;20056;-77
2022/05/31 06:58:23;;;;;;;6.67;4.40;;;12.80;99.90;;;;;;5039490;28;20079;-77
2022/05/31 07:00:53;;;;;;;8.00;4.50;;;12.80;99.90;;;;;;5048951;28;20410;-78
2022/05/31 07:03:20;;;;;;;6.47;4.73;;;12.80;99.90;;;;;;5018688;28;20044;-77
2022/05/31 07:05:46;;;;;;;7.40;4.57;;;12.90;99.90;;;;;;5021664;28;20055;-81
2022/05/31 07:08:16;;;;;;;7.97;4.30;;;13.00;99.90;;;;;;5043907;28;20418;-77
2022/05/31 07:10:59;;;;;;;6.83;4.50;;;13.10;99.90;;;;;;5042184;28;20048;-79
2022/05/31 07:13:43;;;;;;;6.57;4.23;;;13.10;99.90;;;;;;5030513;28;20532;-79
2022/05/31 07:16:27;;;;;;;9.02;4.60;;;13.10;99.90;;;;;;5052975;28;20520;-78
2022/05/31 07:19:13;;;;;;;6.37;3.97;;;13.20;99.90;;;;;;5047528;28;20061;-79
2022/05/31 07:21:44;;;;;;;7.07;3.53;;;13.30;99.90;;;;;;5039042;28;20048;-77
2022/05/31 07:24:10;;;;;;;7.13;4.10;;;13.30;99.90;;;;;;5023718;28;20075;-78
2022/05/31 07:26:48;;;;;;;6.17;4.10;;;13.30;99.90;;;;;;5030623;28;20051;-78
2022/05/31 07:29:16;;;;;;;7.13;4.10;;;13.30;99.90;;;;;;5023098;28;20678;-79
2022/05/31 07:31:44;;;;;;;6.70;4.40;;;13.40;99.90;;;;;;5038430;28;20044;-79
2022/05/31 07:34:11;;;;;;;8.10;3.60;;;13.40;99.90;;;;;;5034020;28;20044;-78
2022/05/31 07:36:37;;;;;;;5.77;3.77;;;13.50;99.90;;;;;;5036002;28;20103;-77
2022/05/31 07:39:10;;;;;;;5.23;3.33;;;13.50;99.90;;;;;;5041501;28;20041;-77
2022/05/31 07:41:37;;;;;;;8.13;3.50;;;13.60;99.90;;;;;;5043948;28;20064;-76
2022/05/31 07:44:05;;;;;;;7.13;3.67;;;13.60;99.90;;;;;;5047369;28;20072;-78
2022/05/31 07:46:32;;;;;;;5.50;3.77;;;13.70;99.90;;;;;;5018786;28;20041;-77
2022/05/31 07:48:57;;;;;;;5.93;3.70;;;13.80;99.90;;;;;;5021751;28;20045;-76
2022/05/31 07:51:40;;;;;;;5.03;3.10;;;13.80;99.90;;;;;;5035160;28;20502;-80
2022/05/31 07:54:36;;;;;;;5.20;3.20;;;13.90;99.90;;;;;;5043709;28;20548;-78
2022/05/31 08:00:25;;;;;;;6.00;3.10;;;14.20;99.90;;;;;;5061755;28;20422;-81
2022/05/31 08:02:54;;;;;;;5.77;3.57;;;14.20;99.90;;;;;;5056321;28;20053;-83
2022/05/31 08:05:19;;;;;;;5.80;3.30;;;14.30;99.90;;;;;;5059020;28;20476;-79
2022/05/31 08:07:45;;;;;;;4.00;2.43;;;14.40;99.90;;;;;;5021724;28;20056;-82
2022/05/31 08:10:12;;;;;;;6.07;3.23;;;14.50;99.90;;;;;;5033587;28;20064;-78
2022/05/31 08:12:39;;;;;;;7.17;2.97;;;14.60;99.90;;;;;;5035437;28;20064;-77
2022/05/31 08:15:06;;;;;;;5.40;2.77;;;14.70;99.90;;;;;;5042551;28;20132;-78
2022/05/31 08:17:33;;;;;;;6.47;2.90;;;14.80;99.90;;;;;;5055213;28;20045;-78
2022/05/31 08:19:59;;;;;;;8.90;3.03;;;14.80;99.90;;;;;;5057581;28;20040;-78
2022/05/31 08:22:25;;;;;;;6.00;2.50;;;14.90;99.90;;;;;;5037127;28;20402;-79
2022/05/31 08:24:51;;;;;;;6.60;2.47;;;15.00;99.90;;;;;;5049734;28;20040;-76
2022/05/31 08:27:16;;;;;;;7.23;2.50;;;15.10;99.90;;;;;;5056869;28;20036;-79
2022/05/31 08:29:42;;;;;;;6.37;2.30;;;15.20;99.90;;;;;;5059772;28;20052;-78
2022/05/31 08:32:08;;;;;;;4.43;1.90;;;15.30;99.90;;;;;;5055638;28;20040;-78
2022/05/31 08:34:35;;;;;;;4.80;2.23;;;15.30;99.90;;;;;;5049627;28;20102;-78
2022/05/31 08:37:01;;;;;;;5.43;2.23;;;15.30;99.90;;;;;;5049563;28;20797;-83
2022/05/31 08:39:27;;;;;;;5.07;1.93;;;15.40;99.90;;;;;;5060662;28;20044;-76
2022/05/31 08:42:03;;;;;;;5.87;2.10;;;15.50;99.60;;;;;;5056463;28;20081;-77
2022/05/31 08:44:35;;;;;;;4.23;2.27;;;15.70;99.90;;;;;;5036505;28;20048;-77
2022/05/31 08:47:02;;;;;;;7.87;2.90;;;15.90;99.60;;;;;;5037636;28;20056;-77
2022/05/31 08:53:02;;;;;;;6.27;3.53;;;16.10;99.10;;;;;;5057553;28;20047;-77
2022/05/31 08:58:21;;;;;;;7.20;3.97;;;16.40;99.30;;;;;;5034798;28;20059;-80
2022/05/31 09:00:50;;;;;;;8.97;5.10;;;16.60;97.10;;;;;;5058069;28;20073;-80
2022/05/31 09:03:20;;;;;;;10.07;5.00;;;16.80;96.40;;;;;;5042996;28;20037;-78
2022/05/31 09:05:54;;;;;;;7.73;4.47;;;16.90;97.00;;;;;;5049404;28;20041;-78
2022/05/31 09:08:22;;;;;;;;;;;17.20;96.90;;;;;;5037478;28;20567;-76
2022/05/31 09:10:54;;;;;;;5.40;3.60;;;17.20;97.10;;;;;;5055212;28;19969;-77
2022/05/31 09:13:25;;;;;;;6.20;4.00;;;17.30;95.50;;;;;;5015068;28;20053;-79
2022/05/31 09:15:55;;;;;;;9.33;4.63;;;17.40;96.10;;;;;;5060074;28;20045;-77
2022/05/31 09:18:26;;;;;;;10.73;5.10;;;17.60;95.50;;;;;;5048525;28;20055;-77
2022/05/31 09:20:56;;;;;;;9.83;5.23;;;17.90;94.60;;;;;;5025375;28;20040;-76
2022/05/31 09:23:25;;;;;;;8.20;4.73;;;18.00;91.90;;;;;;5060113;28;20055;-78
2022/05/31 09:25:58;;;;;;;6.87;4.40;;;18.00;91.20;;;;;;5052239;28;20045;-79
2022/05/31 09:28:31;;;;;;;11.35;4.35;;;18.10;90.70;;;;;;5048656;28;20056;-80
2022/05/31 09:31:02;;;;;;;10.43;3.90;;;18.20;91.40;;;;;;5068109;28;20054;-77
2022/05/31 09:33:34;;;;;;;7.97;3.40;;;18.10;90.90;;;;;;5039260;28;20044;-79
2022/05/31 09:36:13;;;;;;;5.97;3.83;;;18.20;91.80;;;;;;5050330;28;20536;-78
2022/05/31 09:38:59;;;;;;;6.00;3.10;;;18.40;94.20;;;;;;5054643;28;20044;-77
2022/05/31 09:41:32;;;;;;;5.50;2.50;;;18.30;89.60;;;;;;5054415;28;20037;-77
2022/05/31 09:44:06;;;;;;;7.67;2.90;;;18.00;87.20;;;;;;5052427;28;20040;-79
2022/05/31 09:46:37;;;;;;;5.80;2.63;;;17.80;86.20;;;;;;5052557;28;20682;-77
2022/05/31 09:49:23;;;;;;;5.63;2.17;;;17.40;86.00;;;;;;5058916;28;20048;-80
2022/05/31 09:51:51;;;;;;;6.20;2.70;;;17.20;86.60;;;;;;5043133;28;20165;-77
2022/05/31 09:57:11;;;;;;;6.77;2.50;;;17.00;88.90;;;;;;5053722;28;20037;-77
2022/05/31 10:00:18;;;;;;;6.53;3.30;;;16.90;92.00;;;;;;5005928;28;20514;-79
2022/05/31 10:02:59;;;;;;;7.13;3.60;;;16.90;92.90;;;;;;5048158;28;20120;-80
2022/05/31 10:05:25;;;;;;;7.83;3.03;;;16.90;92.00;;;;;;5043599;28;20120;-78
2022/05/31 10:07:52;;;;;;;7.27;3.40;;;16.80;90.60;;;;;;5043707;28;20112;-79
2022/05/31 10:10:24;;;;;;;5.87;3.57;;;16.80;91.30;;;;;;5038604;28;20056;-78
2022/05/31 10:12:54;;;;;;;5.97;3.20;;;16.80;91.10;;;;;;5046500;28;20111;-80
2022/05/31 10:15:38;;;;;;;9.20;3.47;;;16.90;89.80;;;;;;5040337;28;20049;-82
2022/05/31 10:18:08;;;;;;;4.83;3.33;;;17.00;90.50;;;;;;5043208;28;20131;-77
2022/05/31 10:20:36;;;;;;;7.40;3.53;;;17.10;89.60;;;;;;5015251;28;20036;-80
2022/05/31 10:23:06;;;;;;;5.70;3.40;;;17.20;88.50;;;;;;5044942;28;20979;-78
2022/05/31 10:25:53;;;;;;;7.60;3.60;;;17.50;90.40;;;;;;5057235;28;20576;-77
2022/05/31 10:28:41;;;;;;;6.63;4.10;;;17.70;91.40;;;;;;5055988;28;20051;-77
2022/05/31 10:31:17;;;;;;;8.40;4.00;;;17.90;89.20;;;;;;5030734;28;20083;-76
2022/05/31 10:33:52;;;;;;;9.10;4.45;;;18.10;88.80;;;;;;5041471;28;20106;-78
2022/05/31 10:36:20;;;;;;;;;;;18.20;88.00;;;;;;5045995;28;20088;-80
2022/05/31 10:38:49;;;;;;;7.87;4.10;;;18.40;90.00;;;;;;5053746;28;19935;-79
2022/05/31 10:41:23;;;;;;;6.57;3.57;;;18.70;90.60;;;;;;5042583;28;20053;-78
2022/05/31 10:43:57;;;;;;;5.60;3.23;;;19.10;87.50;;;;;;5065071;28;20128;-77
2022/05/31 10:46:26;;;;;;;4.63;3.63;;;19.30;81.20;;;;;;5041868;28;20482;-77
2022/05/31 10:48:55;;;;;;;6.63;3.20;;;19.40;83.90;;;;;;5052191;28;20074;-78
2022/05/31 10:51:35;;;;;;;6.47;3.70;;;19.50;80.60;;;;;;5033276;28;20036;-79
2022/05/31 10:54:12;;;;;;;6.33;3.50;;;19.70;84.40;;;;;;5055444;28;20049;-83
2022/05/31 10:56:49;;;;;;;9.33;3.63;;;20.00;79.70;;;;;;5051772;28;20072;-76
2022/05/31 10:59:17;;;;;;;6.33;3.43;;;20.30;78.00;;;;;;5034268;28;20427;-77
2022/05/31 11:02:02;;;;;;;4.83;3.20;;;20.40;74.30;;;;;;5040314;28;20052;-76
2022/05/31 11:04:41;;;;;;;6.43;2.90;;;20.30;70.10;;;;;;5048776;28;20040;-75
2022/05/31 11:07:17;;;;;;;5.30;3.07;;;20.10;65.50;;;;;;5020929;28;20044;-78
2022/05/31 11:12:42;;;;;;;;;;;19.40;65.00;;;;;;5051438;28;20398;-79
2022/05/31 11:15:35;;;;;;;7.97;3.03;;;19.00;66.60;;;;;;5055555;28;20390;-77
2022/05/31 11:18:18;;;;;;;4.63;2.87;;;18.80;65.70;;;;;;5036410;28;20132;-81
2022/05/31 11:20:53;;;;;;;7.80;3.53;;;18.50;67.50;;;;;;5054908;28;20087;-80
2022/05/31 11:23:45;;;;;;;7.83;3.80;;;18.40;69.30;;;;;;5062203;28;20052;-78
2022/05/31 11:26:34;;;;;;;6.93;3.50;;;18.40;69.20;;;;;;5032996;28;20041;-79
2022/05/31 11:29:13;;;;;;;8.00;3.27;;;18.30;67.30;;;;;;5054007;28;20052;-78
2022/05/31 11:31:48;;;;;;;7.00;2.80;;;18.30;69.40;;;;;;5059747;28;20330;-77
2022/05/31 11:34:26;;;;;;;6.37;3.23;;;18.40;70.00;;;;;;5049268;28;20045;-77
2022/05/31 11:37:12;;;;;;;7.17;3.43;;;18.40;71.50;;;;;;5032778;28;20045;-77
2022/05/31 11:39:50;;;;;;;7.50;3.40;;;18.50;70.70;;;;;;5069075;28;20090;-78
2022/05/31 11:42:33;;;;;;;5.63;3.03;;;18.40;66.60;;;;;;5061657;28;20725;-77
2022/05/31 11:45:09;;;;;;;6.67;2.97;;;18.20;67.50;;;;;;5071170;28;20049;-77
2022/05/31 11:47:53;;;;;;;4.87;3.20;;;18.10;69.30;;;;;;5040395;28;20037;-79
2022/05/31 11:50:26;;;;;;;5.40;3.10;;;18.10;67.60;;;;;;5073387;28;20044;-79
2022/05/31 11:53:07;;;;;;;7.37;3.20;;;18.00;67.20;;;;;;5049931;28;20461;-76
2022/05/31 11:55:38;;;;;;;5.33;3.20;;;18.10;68.20;;;;;;5053579;28;20455;-77
2022/05/31 11:58:34;;;;;;;8.20;3.60;;;18.10;68.50;;;;;;5046529;28;20041;-77
2022/05/31 12:01:06;;;;;;;7.53;3.70;;;18.10;68.80;;;;;;5039992;28;20055;-77
2022/05/31 12:03:39;;;;;;;8.03;3.17;;;18.10;71.60;;;;;;5064945;28;20110;-80
2022/05/31 12:06:11;;;;;;;6.63;3.30;;;18.30;73.30;;;;;;5049301;28;20037;-77
2022/05/31 12:08:44;;;;;;;7.23;3.33;;;18.40;69.60;;;;;;5046280;28;20057;-77
2022/05/31 12:11:14;;;;;;;5.67;3.33;;;18.30;69.70;;;;;;5053882;28;20116;-76
2022/05/31 12:13:47;;;;;;;7.23;3.23;;;18.20;67.50;;;;;;5067227;28;20055;-76
2022/05/31 12:16:14;;;;;;;5.63;3.38;;;18.10;67.10;;;;;;5021449;28;20047;-79
2022/05/31 12:18:50;;;;;;;6.73;3.50;;;18.00;70.30;;;;;;5056850;28;20060;-80
2022/05/31 12:21:23;;;;;;;5.63;3.33;;;18.10;70.90;;;;;;5059067;28;20067;-77
2022/05/31 12:23:54;;;;;;;7.00;3.00;;;18.10;70.10;;;;;;5058573;28;20064;-80
2022/05/31 12:26:27;;;;;;;6.43;3.03;;;17.90;67.90;;;;;;5057902;28;20402;-76
2022/05/31 12:29:00;;;;;;;4.72;3.20;;;17.90;69.90;;;;;;5059923;28;20045;-77
2022/05/31 12:31:28;;;;;;;10.30;3.17;;;17.80;69.30;;;;;;5037776;28;20045;-76
2022/05/31 12:34:11;;;;;;;5.47;3.40;;;17.80;69.30;;;;;;5043670;28;20069;-78
2022/05/31 12:36:56;;;;;;;6.57;2.90;;;17.70;70.20;;;;;;5055441;28;20048;-77
2022/05/31 12:39:24;;;;;;;5.00;2.90;;;17.60;69.00;;;;;;5053176;28;20056;-80
2022/05/31 12:41:51;;;;;;;6.30;3.10;;;17.50;69.30;;;;;;5049142;28;20053;-78
2022/05/31 12:44:28;;;;;;;6.50;3.37;;;17.50;70.60;;;;;;5037862;28;20483;-78
2022/05/31 12:47:08;;;;;;;7.83;5.13;;;17.40;68.60;;;;;;5045075;28;20049;-77
2022/05/31 12:49:37;;;;;;;7.80;5.30;;;17.30;70.80;;;;;;5056286;28;20097;-77
2022/05/31 12:55:10;;;;;;;;;;;17.10;76.90;;;;;;5069297;28;20411;-77
2022/05/31 13:00:40;;;;;;;11.00;5.93;;;17.00;80.40;;;;;;5049527;28;20379;-76
2022/05/31 13:03:44;;;;;;;10.83;6.10;;;17.00;81.80;;;;;;5037842;28;20076;-77
2022/05/31 13:06:14;;;;;;;11.55;5.70;;;16.90;80.90;;;;;;5058451;28;20068;-80
2022/05/31 13:08:57;;;;;;;6.83;5.40;;;16.90;81.70;;;;;;5042430;28;20049;-77
2022/05/31 13:20:32;;;;;;;10.93;6.80;;;16.50;82.10;;;;;;4977674;28;20065;-74
2022/05/31 13:23:04;;;;;;;10.17;6.83;;;16.50;83.20;;;;;;5010298;28;20108;-72
2022/05/31 13:25:32;;;;;;;11.23;6.90;;;16.40;82.90;;;;;;4995587;28;20120;-73
2022/05/31 13:28:01;;;;;;;11.00;7.10;;;16.30;83.00;;;;;;4978111;28;20092;-74
2022/05/31 13:30:29;;;;;;;11.57;6.90;;;16.20;85.10;;;;;;4977011;28;20065;-73
2022/05/31 13:32:58;;;;;;;12.10;7.17;;;16.10;86.30;;;;;;4998561;28;20049;-72
2022/05/31 13:35:26;;;;;;;9.87;6.87;;;16.10;87.50;;;;;;4993739;28;20049;-73
2022/05/31 13:37:58;;;;;;;12.97;7.47;;;16.00;88.30;;;;;;4995141;28;20068;-73
2022/05/31 13:40:29;;;;;;;11.87;7.00;;;15.90;88.70;;;;;;4978338;28;20030;-73
2022/05/31 13:42:55;;;;;;;10.10;6.20;;;16.00;89.40;;;;;;4995363;28;20052;-74
2022/05/31 13:45:25;;;;;;;7.93;5.93;;;15.90;89.90;;;;;;4996748;28;20038;-73
2022/05/31 13:47:55;;;;;;;8.03;6.47;;;15.90;90.00;;;;;;4998179;28;20069;-73
2022/05/31 13:50:33;;;;;;;11.13;6.40;;;15.90;90.90;;;;;;4995563;28;20111;-72
2022/05/31 13:53:04;;;;;;;9.67;5.53;;;15.80;90.50;;;;;;4999873;28;20054;-73
2022/05/31 13:55:30;;;;;;;9.87;5.90;;;15.80;90.70;;;;;;5014396;28;20452;-73
2022/05/31 13:57:58;;;;;;;13.37;6.43;;;15.70;90.70;;;;;;4996972;28;20130;-73
2022/05/31 14:00:39;;;;;;;11.10;5.87;;;15.80;90.70;;;;;;4998367;28;20053;-74